createdAt,value
2022-11-07T00:12:18.834Z,1007.77
2022-11-07T00:27:19.578Z,1007.81
2022-11-07T00:42:19.461Z,1007.82
2022-11-07T00:57:20.210Z,1007.85
2022-11-07T01:12:21.270Z,1007.87
2022-11-07T01:27:21.760Z,1007.85
2022-11-07T01:42:21.892Z,1007.67
2022-11-07T01:57:22.484Z,1007.61
2022-11-07T02:12:22.722Z,1007.63
2022-11-07T02:27:24.466Z,1007.62
2022-11-07T02:42:26.467Z,1007.66
2022-11-07T02:57:26.460Z,1007.63
2022-11-07T03:12:27.290Z,1007.76
2022-11-07T03:27:27.688Z,1007.88
2022-11-07T03:42:28.432Z,1007.93
2022-11-07T03:57:28.968Z,1008.00
2022-11-07T04:12:30.892Z,1008.00
2022-11-07T04:27:31.404Z,1008.20
2022-11-07T04:42:31.563Z,1008.24
2022-11-07T04:57:32.165Z,1008.34
2022-11-07T05:12:31.833Z,1008.53
2022-11-07T05:27:31.874Z,1008.40
2022-11-07T05:42:32.006Z,1008.51
2022-11-07T05:57:32.167Z,1008.56
2022-11-07T06:12:32.879Z,1008.74
2022-11-07T06:27:34.493Z,1008.93
2022-11-07T06:42:35.472Z,1009.04
2022-11-07T06:57:36.073Z,1009.06
2022-11-07T07:12:36.740Z,1009.29
2022-11-07T07:27:37.103Z,1009.37
2022-11-07T07:42:37.528Z,1009.30
2022-11-07T07:57:37.714Z,1009.33
2022-11-07T08:12:38.294Z,1009.43
2022-11-07T08:27:38.325Z,1009.55
2022-11-07T08:42:38.548Z,1009.53
2022-11-07T08:57:38.669Z,1009.60
2022-11-07T09:12:39.364Z,1009.59
2022-11-07T09:27:40.444Z,1009.57
2022-11-07T09:42:41.602Z,1009.71
2022-11-07T09:57:43.315Z,1009.81
2022-11-07T10:12:44.917Z,1009.73
2022-11-07T10:27:45.665Z,1009.73
2022-11-07T10:42:46.095Z,1009.74
2022-11-07T10:57:47.439Z,1009.78
2022-11-07T11:12:47.735Z,1009.73
2022-11-07T11:27:49.212Z,1009.63
2022-11-07T11:42:50.549Z,1009.58
2022-11-07T11:57:52.025Z,1009.68
2022-11-07T12:12:52.129Z,1009.59
2022-11-07T12:27:52.577Z,1009.62
2022-11-07T12:42:59.762Z,1009.60
2022-11-07T12:58:00.746Z,1009.58
2022-11-07T13:13:01.021Z,1009.67
2022-11-07T13:28:01.021Z,1009.60
2022-11-07T13:43:01.049Z,1009.64
2022-11-07T13:58:01.860Z,1009.62
2022-11-07T14:13:03.007Z,1009.57
2022-11-07T14:28:04.586Z,1009.47
2022-11-07T14:43:04.985Z,1009.41
2022-11-07T14:58:05.519Z,1009.48
2022-11-07T15:13:07.870Z,1009.51
2022-11-07T15:28:09.645Z,1009.53
2022-11-07T15:43:10.397Z,1009.59
2022-11-07T15:58:10.857Z,1009.58
2022-11-07T16:13:11.116Z,1009.59
2022-11-07T16:28:11.687Z,1009.61
2022-11-07T16:43:12.291Z,1009.63
2022-11-07T16:58:12.309Z,1009.89
2022-11-07T17:13:12.415Z,1009.91
2022-11-07T17:28:12.577Z,1009.92
2022-11-07T17:43:12.666Z,1010.18
2022-11-07T17:58:13.438Z,1010.32
2022-11-07T18:13:13.884Z,1010.43
2022-11-07T18:28:15.843Z,1010.36
2022-11-07T18:43:17.716Z,1010.36
2022-11-07T18:58:19.668Z,1010.53
2022-11-07T19:13:20.671Z,1010.55
2022-11-07T19:28:23.019Z,1010.57
2022-11-07T19:43:23.143Z,1010.62
2022-11-07T19:58:25.293Z,1010.59
2022-11-07T20:13:25.627Z,1010.62
2022-11-07T20:28:27.015Z,1010.70
2022-11-07T20:43:28.861Z,1010.75
2022-11-07T20:58:29.732Z,1010.91
2022-11-07T21:13:29.809Z,1010.91
2022-11-07T21:28:31.311Z,1010.90
2022-11-07T21:43:32.673Z,1010.91
2022-11-07T21:58:34.080Z,1010.94
2022-11-07T22:13:34.092Z,1010.96
2022-11-07T22:28:35.408Z,1010.96
2022-11-07T22:43:37.111Z,1010.90
2022-11-07T22:58:37.885Z,1010.84
2022-11-07T23:13:37.912Z,1010.81
2022-11-07T23:28:44.097Z,1010.80
2022-11-07T23:43:49.824Z,1010.77
2022-11-07T23:58:52.165Z,1010.68
